sensor_id;sensor_type;location;lat;lon;timestamp;P1;durP1;ratioP1;P2;durP2;ratioP2
20080;SDS011;10200;49.232;9.222;2023-02-04T00:01:18;4.53;;;3.60;;
20080;SDS011;10200;49.232;9.222;2023-02-04T00:03:44;4.70;;;3.87;;
20080;SDS011;10200;49.232;9.222;2023-02-04T00:06:09;5.00;;;3.70;;
20080;SDS011;10200;49.232;9.222;2023-02-04T00:08:35;4.53;;;3.53;;
20080;SDS011;10200;49.232;9.222;2023-02-04T00:11:01;4.33;;;3.80;;
20080;SDS011;10200;49.232;9.222;2023-02-04T00:13:27;10.30;;;4.27;;
20080;SDS011;10200;49.232;9.222;2023-02-04T00:15:53;7.90;;;4.37;;
20080;SDS011;10200;49.232;9.222;2023-02-04T00:18:19;5.47;;;4.37;;
20080;SDS011;10200;49.232;9.222;2023-02-04T00:20:44;4.50;;;3.93;;
20080;SDS011;10200;49.232;9.222;2023-02-04T00:23:10;11.33;;;7.23;;
20080;SDS011;10200;49.232;9.222;2023-02-04T00:25:35;9.70;;;6.67;;
20080;SDS011;10200;49.232;9.222;2023-02-04T00:28:01;9.07;;;6.90;;
20080;SDS011;10200;49.232;9.222;2023-02-04T00:30:28;8.33;;;6.17;;
20080;SDS011;10200;49.232;9.222;2023-02-04T00:32:54;7.70;;;6.47;;
20080;SDS011;10200;49.232;9.222;2023-02-04T00:35:20;7.80;;;6.17;;
20080;SDS011;10200;49.232;9.222;2023-02-04T00:37:49;8.63;;;6.20;;
20080;SDS011;10200;49.232;9.222;2023-02-04T00:40:15;6.17;;;5.40;;
20080;SDS011;10200;49.232;9.222;2023-02-04T00:42:41;6.47;;;5.33;;
20080;SDS011;10200;49.232;9.222;2023-02-04T00:45:07;7.20;;;4.73;;
20080;SDS011;10200;49.232;9.222;2023-02-04T00:47:33;7.40;;;4.90;;
20080;SDS011;10200;49.232;9.222;2023-02-04T00:49:59;7.30;;;5.10;;
20080;SDS011;10200;49.232;9.222;2023-02-04T00:52:25;5.50;;;4.53;;
20080;SDS011;10200;49.232;9.222;2023-02-04T00:54:50;6.20;;;4.80;;
20080;SDS011;10200;49.232;9.222;2023-02-04T00:57:16;7.57;;;4.63;;
20080;SDS011;10200;49.232;9.222;2023-02-04T00:59:42;9.63;;;4.50;;
20080;SDS011;10200;49.232;9.222;2023-02-04T01:02:07;5.13;;;4.00;;
20080;SDS011;10200;49.232;9.222;2023-02-04T01:04:33;6.87;;;4.60;;
20080;SDS011;10200;49.232;9.222;2023-02-04T01:06:59;5.60;;;3.80;;
20080;SDS011;10200;49.232;9.222;2023-02-04T01:09:24;4.63;;;3.17;;
20080;SDS011;10200;49.232;9.222;2023-02-04T01:11:50;6.73;;;3.03;;
20080;SDS011;10200;49.232;9.222;2023-02-04T01:14:15;7.90;;;3.83;;
20080;SDS011;10200;49.232;9.222;2023-02-04T01:16:41;8.70;;;4.00;;
20080;SDS011;10200;49.232;9.222;2023-02-04T01:19:06;5.07;;;3.27;;
20080;SDS011;10200;49.232;9.222;2023-02-04T01:21:32;4.17;;;3.10;;
20080;SDS011;10200;49.232;9.222;2023-02-04T01:23:58;6.97;;;3.50;;
20080;SDS011;10200;49.232;9.222;2023-02-04T01:26:23;5.03;;;2.90;;
20080;SDS011;10200;49.232;9.222;2023-02-04T01:28:49;4.13;;;3.47;;
20080;SDS011;10200;49.232;9.222;2023-02-04T01:31:15;6.60;;;2.90;;
20080;SDS011;10200;49.232;9.222;2023-02-04T01:33:41;3.60;;;2.50;;
20080;SDS011;10200;49.232;9.222;2023-02-04T01:36:07;5.60;;;2.77;;
20080;SDS011;10200;49.232;9.222;2023-02-04T01:38:33;3.73;;;2.90;;
20080;SDS011;10200;49.232;9.222;2023-02-04T01:40:58;5.00;;;3.70;;
20080;SDS011;10200;49.232;9.222;2023-02-04T01:43:24;3.73;;;2.87;;
20080;SDS011;10200;49.232;9.222;2023-02-04T01:45:51;6.50;;;2.67;;
20080;SDS011;10200;49.232;9.222;2023-02-04T01:48:18;8.50;;;3.60;;
20080;SDS011;10200;49.232;9.222;2023-02-04T01:50:49;6.27;;;3.07;;
20080;SDS011;10200;49.232;9.222;2023-02-04T01:53:17;6.70;;;3.13;;
20080;SDS011;10200;49.232;9.222;2023-02-04T01:55:45;7.03;;;2.83;;
20080;SDS011;10200;49.232;9.222;2023-02-04T01:58:11;7.13;;;3.00;;
20080;SDS011;10200;49.232;9.222;2023-02-04T02:00:38;7.30;;;2.67;;
20080;SDS011;10200;49.232;9.222;2023-02-04T02:03:05;8.27;;;3.57;;
20080;SDS011;10200;49.232;9.222;2023-02-04T02:08:12;5.43;;;2.60;;
20080;SDS011;10200;49.232;9.222;2023-02-04T02:10:39;6.87;;;2.70;;
20080;SDS011;10200;49.232;9.222;2023-02-04T02:13:08;10.43;;;3.47;;
20080;SDS011;10200;49.232;9.222;2023-02-04T02:15:37;4.70;;;2.90;;
20080;SDS011;10200;49.232;9.222;2023-02-04T02:18:04;5.63;;;2.73;;
20080;SDS011;10200;49.232;9.222;2023-02-04T02:20:30;5.03;;;2.27;;
20080;SDS011;10200;49.232;9.222;2023-02-04T02:25:51;6.83;;;2.43;;
20080;SDS011;10200;49.232;9.222;2023-02-04T02:28:17;9.47;;;2.83;;
20080;SDS011;10200;49.232;9.222;2023-02-04T02:30:45;6.40;;;2.20;;
20080;SDS011;10200;49.232;9.222;2023-02-04T02:33:13;8.70;;;2.80;;
20080;SDS011;10200;49.232;9.222;2023-02-04T02:35:41;7.80;;;2.90;;
20080;SDS011;10200;49.232;9.222;2023-02-04T02:38:08;8.40;;;2.30;;
20080;SDS011;10200;49.232;9.222;2023-02-04T02:40:37;7.87;;;2.30;;
20080;SDS011;10200;49.232;9.222;2023-02-04T02:43:03;6.60;;;2.20;;
20080;SDS011;10200;49.232;9.222;2023-02-04T02:45:30;9.57;;;2.57;;
20080;SDS011;10200;49.232;9.222;2023-02-04T02:47:58;9.67;;;2.20;;
20080;SDS011;10200;49.232;9.222;2023-02-04T02:50:25;8.80;;;2.90;;
20080;SDS011;10200;49.232;9.222;2023-02-04T02:52:54;6.90;;;2.53;;
20080;SDS011;10200;49.232;9.222;2023-02-04T02:55:21;15.27;;;3.77;;
20080;SDS011;10200;49.232;9.222;2023-02-04T02:57:48;6.33;;;2.33;;
20080;SDS011;10200;49.232;9.222;2023-02-04T03:02:44;6.87;;;2.30;;
20080;SDS011;10200;49.232;9.222;2023-02-04T03:05:18;8.60;;;2.80;;
20080;SDS011;10200;49.232;9.222;2023-02-04T03:07:44;8.33;;;2.43;;
20080;SDS011;10200;49.232;9.222;2023-02-04T03:10:10;7.47;;;2.30;;
20080;SDS011;10200;49.232;9.222;2023-02-04T03:12:35;7.87;;;2.20;;
20080;SDS011;10200;49.232;9.222;2023-02-04T03:15:02;5.10;;;2.23;;
20080;SDS011;10200;49.232;9.222;2023-02-04T03:17:29;9.63;;;2.30;;
20080;SDS011;10200;49.232;9.222;2023-02-04T03:19:55;10.10;;;2.10;;
20080;SDS011;10200;49.232;9.222;2023-02-04T03:22:20;8.67;;;1.97;;
20080;SDS011;10200;49.232;9.222;2023-02-04T03:24:46;5.17;;;2.10;;
20080;SDS011;10200;49.232;9.222;2023-02-04T03:27:13;9.87;;;2.20;;
20080;SDS011;10200;49.232;9.222;2023-02-04T03:29:42;4.27;;;2.00;;
20080;SDS011;10200;49.232;9.222;2023-02-04T03:32:09;11.57;;;2.87;;
20080;SDS011;10200;49.232;9.222;2023-02-04T03:34:34;7.90;;;2.60;;
20080;SDS011;10200;49.232;9.222;2023-02-04T03:37:00;6.30;;;2.57;;
20080;SDS011;10200;49.232;9.222;2023-02-04T03:39:26;5.20;;;2.20;;
20080;SDS011;10200;49.232;9.222;2023-02-04T03:41:51;7.43;;;2.27;;
20080;SDS011;10200;49.232;9.222;2023-02-04T03:44:17;5.40;;;2.27;;
20080;SDS011;10200;49.232;9.222;2023-02-04T03:46:43;6.90;;;2.30;;
20080;SDS011;10200;49.232;9.222;2023-02-04T03:49:09;8.60;;;2.63;;
20080;SDS011;10200;49.232;9.222;2023-02-04T03:51:34;12.37;;;3.47;;
20080;SDS011;10200;49.232;9.222;2023-02-04T03:54:00;9.23;;;2.50;;
20080;SDS011;10200;49.232;9.222;2023-02-04T03:56:25;8.67;;;2.30;;
20080;SDS011;10200;49.232;9.222;2023-02-04T03:58:51;9.33;;;2.77;;
20080;SDS011;10200;49.232;9.222;2023-02-04T04:01:16;5.90;;;2.30;;
20080;SDS011;10200;49.232;9.222;2023-02-04T04:03:42;9.03;;;2.70;;
20080;SDS011;10200;49.232;9.222;2023-02-04T04:06:08;14.40;;;3.27;;
20080;SDS011;10200;49.232;9.222;2023-02-04T04:08:35;10.43;;;2.43;;
20080;SDS011;10200;49.232;9.222;2023-02-04T04:11:01;4.63;;;2.13;;
20080;SDS011;10200;49.232;9.222;2023-02-04T04:13:26;6.30;;;2.30;;
20080;SDS011;10200;49.232;9.222;2023-02-04T04:15:52;10.57;;;2.40;;
20080;SDS011;10200;49.232;9.222;2023-02-04T04:18:17;7.47;;;2.30;;
20080;SDS011;10200;49.232;9.222;2023-02-04T04:20:43;12.23;;;2.93;;
20080;SDS011;10200;49.232;9.222;2023-02-04T04:23:08;15.27;;;2.60;;
20080;SDS011;10200;49.232;9.222;2023-02-04T04:25:34;8.00;;;2.23;;
20080;SDS011;10200;49.232;9.222;2023-02-04T04:27:59;9.73;;;2.90;;
20080;SDS011;10200;49.232;9.222;2023-02-04T04:30:25;7.03;;;2.57;;
20080;SDS011;10200;49.232;9.222;2023-02-04T04:32:51;5.93;;;2.33;;
20080;SDS011;10200;49.232;9.222;2023-02-04T04:35:16;7.87;;;2.47;;
20080;SDS011;10200;49.232;9.222;2023-02-04T04:37:42;13.23;;;3.03;;
20080;SDS011;10200;49.232;9.222;2023-02-04T04:40:08;10.40;;;2.07;;
20080;SDS011;10200;49.232;9.222;2023-02-04T04:42:36;7.07;;;2.23;;
20080;SDS011;10200;49.232;9.222;2023-02-04T04:45:01;7.40;;;2.63;;
20080;SDS011;10200;49.232;9.222;2023-02-04T04:47:27;12.40;;;2.70;;
20080;SDS011;10200;49.232;9.222;2023-02-04T04:49:53;8.13;;;2.60;;
20080;SDS011;10200;49.232;9.222;2023-02-04T04:52:19;11.50;;;3.13;;
20080;SDS011;10200;49.232;9.222;2023-02-04T04:54:44;11.43;;;3.20;;
20080;SDS011;10200;49.232;9.222;2023-02-04T04:57:10;10.33;;;3.07;;
20080;SDS011;10200;49.232;9.222;2023-02-04T04:59:35;10.93;;;2.87;;
20080;SDS011;10200;49.232;9.222;2023-02-04T05:02:01;7.27;;;2.17;;
20080;SDS011;10200;49.232;9.222;2023-02-04T05:04:26;13.00;;;2.80;;
20080;SDS011;10200;49.232;9.222;2023-02-04T05:06:52;4.83;;;2.37;;
20080;SDS011;10200;49.232;9.222;2023-02-04T05:09:17;15.60;;;2.90;;
20080;SDS011;10200;49.232;9.222;2023-02-04T05:11:43;5.37;;;2.30;;
20080;SDS011;10200;49.232;9.222;2023-02-04T05:14:08;6.13;;;2.63;;
20080;SDS011;10200;49.232;9.222;2023-02-04T05:16:34;9.43;;;2.47;;
20080;SDS011;10200;49.232;9.222;2023-02-04T05:18:59;9.57;;;2.40;;
20080;SDS011;10200;49.232;9.222;2023-02-04T05:21:25;7.53;;;3.20;;
20080;SDS011;10200;49.232;9.222;2023-02-04T05:23:51;10.53;;;2.10;;
20080;SDS011;10200;49.232;9.222;2023-02-04T05:26:16;13.60;;;3.03;;
20080;SDS011;10200;49.232;9.222;2023-02-04T05:28:42;8.47;;;2.30;;
20080;SDS011;10200;49.232;9.222;2023-02-04T05:31:07;13.97;;;2.93;;
20080;SDS011;10200;49.232;9.222;2023-02-04T05:33:33;5.43;;;2.47;;
20080;SDS011;10200;49.232;9.222;2023-02-04T05:35:58;6.57;;;2.40;;
20080;SDS011;10200;49.232;9.222;2023-02-04T05:38:24;6.90;;;3.20;;
20080;SDS011;10200;49.232;9.222;2023-02-04T05:40:49;13.10;;;2.67;;
20080;SDS011;10200;49.232;9.222;2023-02-04T05:43:15;4.73;;;2.13;;
20080;SDS011;10200;49.232;9.222;2023-02-04T05:45:40;10.17;;;2.47;;
20080;SDS011;10200;49.232;9.222;2023-02-04T05:48:06;7.60;;;2.30;;
20080;SDS011;10200;49.232;9.222;2023-02-04T05:50:32;4.20;;;2.30;;
20080;SDS011;10200;49.232;9.222;2023-02-04T05:52:57;7.43;;;2.57;;
20080;SDS011;10200;49.232;9.222;2023-02-04T05:55:23;8.50;;;3.10;;
20080;SDS011;10200;49.232;9.222;2023-02-04T05:57:48;4.97;;;2.30;;
20080;SDS011;10200;49.232;9.222;2023-02-04T06:00:14;11.63;;;3.60;;
20080;SDS011;10200;49.232;9.222;2023-02-04T06:02:39;7.13;;;2.67;;
20080;SDS011;10200;49.232;9.222;2023-02-04T06:05:05;12.90;;;3.17;;
20080;SDS011;10200;49.232;9.222;2023-02-04T06:07:31;8.03;;;3.30;;
20080;SDS011;10200;49.232;9.222;2023-02-04T06:09:56;5.23;;;2.50;;
20080;SDS011;10200;49.232;9.222;2023-02-04T06:12:22;5.60;;;2.50;;
20080;SDS011;10200;49.232;9.222;2023-02-04T06:14:48;9.03;;;2.90;;
20080;SDS011;10200;49.232;9.222;2023-02-04T06:17:13;7.73;;;2.60;;
20080;SDS011;10200;49.232;9.222;2023-02-04T06:19:39;8.17;;;2.77;;
20080;SDS011;10200;49.232;9.222;2023-02-04T06:22:04;8.20;;;2.83;;
20080;SDS011;10200;49.232;9.222;2023-02-04T06:24:30;11.13;;;2.83;;
20080;SDS011;10200;49.232;9.222;2023-02-04T06:26:55;10.60;;;3.13;;
20080;SDS011;10200;49.232;9.222;2023-02-04T06:29:21;9.37;;;2.90;;
20080;SDS011;10200;49.232;9.222;2023-02-04T06:31:46;6.30;;;2.87;;
20080;SDS011;10200;49.232;9.222;2023-02-04T06:34:13;8.47;;;3.50;;
20080;SDS011;10200;49.232;9.222;2023-02-04T06:36:39;3.97;;;2.13;;
20080;SDS011;10200;49.232;9.222;2023-02-04T06:39:04;7.40;;;3.33;;
20080;SDS011;10200;49.232;9.222;2023-02-04T06:41:30;9.00;;;3.03;;
20080;SDS011;10200;49.232;9.222;2023-02-04T06:43:55;7.63;;;2.67;;
20080;SDS011;10200;49.232;9.222;2023-02-04T06:46:21;9.50;;;2.80;;
20080;SDS011;10200;49.232;9.222;2023-02-04T06:48:47;7.83;;;2.97;;
20080;SDS011;10200;49.232;9.222;2023-02-04T06:51:12;13.17;;;2.97;;
20080;SDS011;10200;49.232;9.222;2023-02-04T06:53:38;7.23;;;2.50;;
20080;SDS011;10200;49.232;9.222;2023-02-04T06:56:04;8.37;;;4.10;;
20080;SDS011;10200;49.232;9.222;2023-02-04T06:58:30;6.63;;;2.33;;
20080;SDS011;10200;49.232;9.222;2023-02-04T07:00:55;9.20;;;3.23;;
20080;SDS011;10200;49.232;9.222;2023-02-04T07:03:21;10.23;;;3.60;;
20080;SDS011;10200;49.232;9.222;2023-02-04T07:05:46;9.10;;;3.63;;
20080;SDS011;10200;49.232;9.222;2023-02-04T07:08:12;4.97;;;2.70;;
20080;SDS011;10200;49.232;9.222;2023-02-04T07:10:38;12.57;;;3.67;;
20080;SDS011;10200;49.232;9.222;2023-02-04T07:13:03;7.70;;;3.40;;
20080;SDS011;10200;49.232;9.222;2023-02-04T07:15:29;10.13;;;3.03;;
20080;SDS011;10200;49.232;9.222;2023-02-04T07:17:55;7.70;;;2.87;;
20080;SDS011;10200;49.232;9.222;2023-02-04T07:20:20;10.47;;;3.30;;
20080;SDS011;10200;49.232;9.222;2023-02-04T07:22:46;13.37;;;3.73;;
20080;SDS011;10200;49.232;9.222;2023-02-04T07:25:12;7.63;;;3.50;;
20080;SDS011;10200;49.232;9.222;2023-02-04T07:27:39;7.93;;;2.90;;
20080;SDS011;10200;49.232;9.222;2023-02-04T07:30:05;9.33;;;2.80;;
20080;SDS011;10200;49.232;9.222;2023-02-04T07:32:31;6.00;;;3.47;;
20080;SDS011;10200;49.232;9.222;2023-02-04T07:34:58;7.43;;;2.87;;
20080;SDS011;10200;49.232;9.222;2023-02-04T07:37:24;10.77;;;3.23;;
20080;SDS011;10200;49.232;9.222;2023-02-04T07:39:49;7.10;;;2.77;;
20080;SDS011;10200;49.232;9.222;2023-02-04T07:42:15;8.63;;;3.30;;
20080;SDS011;10200;49.232;9.222;2023-02-04T07:44:41;5.73;;;2.60;;
20080;SDS011;10200;49.232;9.222;2023-02-04T07:47:06;9.67;;;3.17;;
20080;SDS011;10200;49.232;9.222;2023-02-04T07:49:32;8.03;;;3.10;;
20080;SDS011;10200;49.232;9.222;2023-02-04T07:51:57;9.17;;;3.07;;
20080;SDS011;10200;49.232;9.222;2023-02-04T07:54:23;7.33;;;4.13;;
20080;SDS011;10200;49.232;9.222;2023-02-04T07:56:49;10.23;;;5.10;;
20080;SDS011;10200;49.232;9.222;2023-02-04T07:59:14;12.33;;;5.90;;
20080;SDS011;10200;49.232;9.222;2023-02-04T08:01:40;14.37;;;5.67;;
20080;SDS011;10200;49.232;9.222;2023-02-04T08:04:05;10.47;;;4.97;;
20080;SDS011;10200;49.232;9.222;2023-02-04T08:06:31;11.07;;;4.90;;
20080;SDS011;10200;49.232;9.222;2023-02-04T08:08:56;12.87;;;4.00;;
20080;SDS011;10200;49.232;9.222;2023-02-04T08:11:22;8.30;;;3.80;;
20080;SDS011;10200;49.232;9.222;2023-02-04T08:13:48;7.53;;;3.17;;
20080;SDS011;10200;49.232;9.222;2023-02-04T08:16:13;7.97;;;3.00;;
20080;SDS011;10200;49.232;9.222;2023-02-04T08:18:39;8.90;;;3.50;;
20080;SDS011;10200;49.232;9.222;2023-02-04T08:21:04;10.60;;;5.57;;
20080;SDS011;10200;49.232;9.222;2023-02-04T08:23:30;15.63;;;5.90;;
20080;SDS011;10200;49.232;9.222;2023-02-04T08:25:57;10.73;;;5.27;;
20080;SDS011;10200;49.232;9.222;2023-02-04T08:28:23;11.70;;;5.33;;
20080;SDS011;10200;49.232;9.222;2023-02-04T08:30:49;6.73;;;5.23;;
20080;SDS011;10200;49.232;9.222;2023-02-04T08:33:15;10.20;;;5.67;;
20080;SDS011;10200;49.232;9.222;2023-02-04T08:35:40;12.63;;;5.07;;
20080;SDS011;10200;49.232;9.222;2023-02-04T08:38:06;9.73;;;4.50;;
20080;SDS011;10200;49.232;9.222;2023-02-04T08:40:32;10.90;;;4.50;;
20080;SDS011;10200;49.232;9.222;2023-02-04T08:42:57;11.50;;;5.30;;
20080;SDS011;10200;49.232;9.222;2023-02-04T08:45:23;8.47;;;4.27;;
20080;SDS011;10200;49.232;9.222;2023-02-04T08:47:48;7.13;;;4.00;;
20080;SDS011;10200;49.232;9.222;2023-02-04T08:50:14;7.97;;;3.30;;
20080;SDS011;10200;49.232;9.222;2023-02-04T08:52:40;6.40;;;3.93;;
20080;SDS011;10200;49.232;9.222;2023-02-04T08:55:05;7.27;;;4.00;;
20080;SDS011;10200;49.232;9.222;2023-02-04T08:57:31;9.00;;;4.47;;
20080;SDS011;10200;49.232;9.222;2023-02-04T08:59:58;9.77;;;3.60;;
20080;SDS011;10200;49.232;9.222;2023-02-04T09:02:24;8.63;;;2.70;;
20080;SDS011;10200;49.232;9.222;2023-02-04T09:04:50;12.23;;;4.13;;
20080;SDS011;10200;49.232;9.222;2023-02-04T09:07:15;9.00;;;3.77;;
20080;SDS011;10200;49.232;9.222;2023-02-04T09:09:41;15.70;;;3.97;;
20080;SDS011;10200;49.232;9.222;2023-02-04T09:12:06;14.73;;;3.97;;
20080;SDS011;10200;49.232;9.222;2023-02-04T09:14:32;11.03;;;3.63;;
20080;SDS011;10200;49.232;9.222;2023-02-04T09:16:58;14.87;;;3.47;;
20080;SDS011;10200;49.232;9.222;2023-02-04T09:19:23;8.87;;;2.93;;
20080;SDS011;10200;49.232;9.222;2023-02-04T09:21:50;13.10;;;4.20;;
20080;SDS011;10200;49.232;9.222;2023-02-04T09:24:17;14.60;;;2.87;;
20080;SDS011;10200;49.232;9.222;2023-02-04T09:26:42;10.43;;;3.10;;
20080;SDS011;10200;49.232;9.222;2023-02-04T09:29:08;10.23;;;3.13;;
20080;SDS011;10200;49.232;9.222;2023-02-04T09:31:34;12.33;;;3.53;;
20080;SDS011;10200;49.232;9.222;2023-02-04T09:33:59;11.87;;;2.97;;
20080;SDS011;10200;49.232;9.222;2023-02-04T09:36:25;11.53;;;3.30;;
20080;SDS011;10200;49.232;9.222;2023-02-04T09:38:53;10.53;;;2.50;;
20080;SDS011;10200;49.232;9.222;2023-02-04T09:41:19;9.80;;;2.73;;
20080;SDS011;10200;49.232;9.222;2023-02-04T09:43:44;12.30;;;2.87;;
20080;SDS011;10200;49.232;9.222;2023-02-04T09:46:17;9.50;;;2.43;;
20080;SDS011;10200;49.232;9.222;2023-02-04T09:48:48;11.20;;;2.87;;
20080;SDS011;10200;49.232;9.222;2023-02-04T09:51:16;6.97;;;2.30;;
20080;SDS011;10200;49.232;9.222;2023-02-04T09:53:44;11.70;;;2.77;;
20080;SDS011;10200;49.232;9.222;2023-02-04T09:56:11;8.13;;;2.50;;
20080;SDS011;10200;49.232;9.222;2023-02-04T09:58:38;11.60;;;3.17;;
20080;SDS011;10200;49.232;9.222;2023-02-04T10:01:08;10.03;;;2.70;;
20080;SDS011;10200;49.232;9.222;2023-02-04T10:03:39;10.13;;;2.47;;
20080;SDS011;10200;49.232;9.222;2023-02-04T10:06:10;11.53;;;3.13;;
20080;SDS011;10200;49.232;9.222;2023-02-04T10:08:40;9.10;;;2.77;;
20080;SDS011;10200;49.232;9.222;2023-02-04T10:11:07;11.80;;;2.77;;
20080;SDS011;10200;49.232;9.222;2023-02-04T10:13:37;12.43;;;3.37;;
20080;SDS011;10200;49.232;9.222;2023-02-04T10:16:14;9.47;;;2.10;;
20080;SDS011;10200;49.232;9.222;2023-02-04T10:18:41;7.10;;;2.50;;
20080;SDS011;10200;49.232;9.222;2023-02-04T10:21:11;9.13;;;3.17;;
20080;SDS011;10200;49.232;9.222;2023-02-04T10:23:50;18.93;;;2.60;;
20080;SDS011;10200;49.232;9.222;2023-02-04T10:26:20;15.17;;;2.97;;
20080;SDS011;10200;49.232;9.222;2023-02-04T10:28:47;11.50;;;2.60;;
20080;SDS011;10200;49.232;9.222;2023-02-04T10:34:05;6.17;;;1.70;;
20080;SDS011;10200;49.232;9.222;2023-02-04T10:36:31;13.43;;;2.63;;
20080;SDS011;10200;49.232;9.222;2023-02-04T10:39:00;9.30;;;2.97;;
20080;SDS011;10200;49.232;9.222;2023-02-04T10:41:26;5.40;;;1.93;;
20080;SDS011;10200;49.232;9.222;2023-02-04T10:44:02;11.40;;;2.93;;
20080;SDS011;10200;49.232;9.222;2023-02-04T10:46:34;12.67;;;2.63;;
20080;SDS011;10200;49.232;9.222;2023-02-04T10:49:02;8.37;;;1.87;;
20080;SDS011;10200;49.232;9.222;2023-02-04T10:51:29;7.63;;;1.60;;
20080;SDS011;10200;49.232;9.222;2023-02-04T10:53:55;6.17;;;1.77;;
20080;SDS011;10200;49.232;9.222;2023-02-04T10:56:39;7.27;;;1.77;;
20080;SDS011;10200;49.232;9.222;2023-02-04T10:59:05;3.63;;;1.60;;
20080;SDS011;10200;49.232;9.222;2023-02-04T11:01:37;8.63;;;2.10;;
20080;SDS011;10200;49.232;9.222;2023-02-04T11:04:04;10.77;;;2.10;;
20080;SDS011;10200;49.232;9.222;2023-02-04T11:06:34;6.27;;;1.90;;
20080;SDS011;10200;49.232;9.222;2023-02-04T11:08:59;7.63;;;1.60;;
20080;SDS011;10200;49.232;9.222;2023-02-04T11:11:25;5.97;;;1.67;;
20080;SDS011;10200;49.232;9.222;2023-02-04T11:18:43;10.07;;;2.23;;
20080;SDS011;10200;49.232;9.222;2023-02-04T11:26:41;9.00;;;2.07;;
20080;SDS011;10200;49.232;9.222;2023-02-04T11:37:54;9.03;;;2.00;;
20080;SDS011;10200;49.232;9.222;2023-02-04T11:42:46;9.23;;;2.10;;
20080;SDS011;10200;49.232;9.222;2023-02-04T11:45:16;10.80;;;1.93;;
20080;SDS011;10200;49.232;9.222;2023-02-04T11:47:47;7.17;;;2.17;;
20080;SDS011;10200;49.232;9.222;2023-02-04T11:52:43;9.70;;;2.30;;
20080;SDS011;10200;49.232;9.222;2023-02-04T11:55:09;7.40;;;1.27;;
20080;SDS011;10200;49.232;9.222;2023-02-04T11:57:39;10.73;;;2.13;;
20080;SDS011;10200;49.232;9.222;2023-02-04T12:00:12;8.00;;;1.40;;
20080;SDS011;10200;49.232;9.222;2023-02-04T12:02:40;6.47;;;2.10;;
20080;SDS011;10200;49.232;9.222;2023-02-04T12:05:10;5.90;;;1.67;;
20080;SDS011;10200;49.232;9.222;2023-02-04T12:07:38;13.23;;;2.20;;
20080;SDS011;10200;49.232;9.222;2023-02-04T12:10:18;6.87;;;2.77;;
20080;SDS011;10200;49.232;9.222;2023-02-04T12:12:51;15.13;;;2.13;;
20080;SDS011;10200;49.232;9.222;2023-02-04T12:15:22;7.63;;;2.10;;
20080;SDS011;10200;49.232;9.222;2023-02-04T12:18:03;6.77;;;2.50;;
20080;SDS011;10200;49.232;9.222;2023-02-04T12:20:29;12.50;;;3.13;;
20080;SDS011;10200;49.232;9.222;2023-02-04T12:22:55;7.43;;;1.37;;
20080;SDS011;10200;49.232;9.222;2023-02-04T12:25:21;8.70;;;2.87;;
20080;SDS011;10200;49.232;9.222;2023-02-04T12:27:47;14.83;;;2.43;;
20080;SDS011;10200;49.232;9.222;2023-02-04T12:30:13;12.67;;;1.97;;
20080;SDS011;10200;49.232;9.222;2023-02-04T12:32:38;6.87;;;1.50;;
20080;SDS011;10200;49.232;9.222;2023-02-04T12:35:04;10.33;;;2.13;;
20080;SDS011;10200;49.232;9.222;2023-02-04T12:37:30;9.00;;;1.80;;
20080;SDS011;10200;49.232;9.222;2023-02-04T12:39:56;7.50;;;1.43;;
20080;SDS011;10200;49.232;9.222;2023-02-04T12:42:21;6.47;;;1.80;;
20080;SDS011;10200;49.232;9.222;2023-02-04T12:44:47;13.00;;;2.73;;
20080;SDS011;10200;49.232;9.222;2023-02-04T12:47:12;8.27;;;2.43;;
20080;SDS011;10200;49.232;9.222;2023-02-04T12:49:38;7.23;;;2.53;;
20080;SDS011;10200;49.232;9.222;2023-02-04T12:52:04;9.27;;;2.50;;
20080;SDS011;10200;49.232;9.222;2023-02-04T12:54:30;5.90;;;1.87;;
20080;SDS011;10200;49.232;9.222;2023-02-04T12:56:55;9.47;;;1.57;;
20080;SDS011;10200;49.232;9.222;2023-02-04T12:59:22;4.27;;;1.60;;
20080;SDS011;10200;49.232;9.222;2023-02-04T13:01:49;10.60;;;2.23;;
20080;SDS011;10200;49.232;9.222;2023-02-04T13:04:15;10.13;;;2.27;;
20080;SDS011;10200;49.232;9.222;2023-02-04T13:06:40;8.83;;;2.47;;
20080;SDS011;10200;49.232;9.222;2023-02-04T13:09:06;15.60;;;2.30;;
20080;SDS011;10200;49.232;9.222;2023-02-04T13:11:32;7.53;;;2.23;;
20080;SDS011;10200;49.232;9.222;2023-02-04T13:13:58;10.30;;;2.10;;
20080;SDS011;10200;49.232;9.222;2023-02-04T13:16:24;8.47;;;2.10;;
20080;SDS011;10200;49.232;9.222;2023-02-04T13:18:50;7.50;;;2.07;;
20080;SDS011;10200;49.232;9.222;2023-02-04T13:21:15;4.70;;;1.83;;
20080;SDS011;10200;49.232;9.222;2023-02-04T13:23:41;9.80;;;2.40;;
20080;SDS011;10200;49.232;9.222;2023-02-04T13:26:07;8.93;;;1.80;;
20080;SDS011;10200;49.232;9.222;2023-02-04T13:28:33;4.33;;;1.70;;
20080;SDS011;10200;49.232;9.222;2023-02-04T13:30:59;4.13;;;2.20;;
20080;SDS011;10200;49.232;9.222;2023-02-04T13:33:25;7.00;;;1.47;;
20080;SDS011;10200;49.232;9.222;2023-02-04T13:35:50;5.20;;;1.73;;
20080;SDS011;10200;49.232;9.222;2023-02-04T13:38:16;11.00;;;3.80;;
20080;SDS011;10200;49.232;9.222;2023-02-04T13:40:42;6.53;;;2.20;;
20080;SDS011;10200;49.232;9.222;2023-02-04T13:43:07;2.47;;;1.17;;
20080;SDS011;10200;49.232;9.222;2023-02-04T13:45:33;7.53;;;1.80;;
20080;SDS011;10200;49.232;9.222;2023-02-04T13:47:59;4.37;;;1.70;;
20080;SDS011;10200;49.232;9.222;2023-02-04T13:50:24;6.07;;;1.97;;
20080;SDS011;10200;49.232;9.222;2023-02-04T13:52:50;9.97;;;2.10;;
20080;SDS011;10200;49.232;9.222;2023-02-04T13:55:16;4.57;;;1.50;;
20080;SDS011;10200;49.232;9.222;2023-02-04T13:57:41;7.30;;;2.60;;
20080;SDS011;10200;49.232;9.222;2023-02-04T14:00:07;6.43;;;1.80;;
20080;SDS011;10200;49.232;9.222;2023-02-04T14:02:35;5.33;;;2.13;;
20080;SDS011;10200;49.232;9.222;2023-02-04T14:05:00;11.73;;;3.17;;
20080;SDS011;10200;49.232;9.222;2023-02-04T14:07:26;11.13;;;2.10;;
20080;SDS011;10200;49.232;9.222;2023-02-04T14:09:52;7.63;;;2.50;;
20080;SDS011;10200;49.232;9.222;2023-02-04T14:12:17;7.60;;;2.53;;
20080;SDS011;10200;49.232;9.222;2023-02-04T14:14:43;5.47;;;2.17;;
20080;SDS011;10200;49.232;9.222;2023-02-04T14:17:08;6.80;;;2.07;;
20080;SDS011;10200;49.232;9.222;2023-02-04T14:19:34;9.00;;;1.83;;
20080;SDS011;10200;49.232;9.222;2023-02-04T14:21:59;6.97;;;1.40;;
20080;SDS011;10200;49.232;9.222;2023-02-04T14:24:25;6.73;;;2.67;;
20080;SDS011;10200;49.232;9.222;2023-02-04T14:26:51;6.80;;;2.03;;
20080;SDS011;10200;49.232;9.222;2023-02-04T14:29:16;12.10;;;2.37;;
20080;SDS011;10200;49.232;9.222;2023-02-04T14:31:42;7.60;;;2.53;;
20080;SDS011;10200;49.232;9.222;2023-02-04T14:34:08;6.07;;;1.80;;
20080;SDS011;10200;49.232;9.222;2023-02-04T14:36:33;4.50;;;1.40;;
20080;SDS011;10200;49.232;9.222;2023-02-04T14:38:59;3.23;;;1.63;;
20080;SDS011;10200;49.232;9.222;2023-02-04T14:41:24;4.50;;;1.63;;
20080;SDS011;10200;49.232;9.222;2023-02-04T14:43:50;10.50;;;1.60;;
20080;SDS011;10200;49.232;9.222;2023-02-04T14:46:17;5.87;;;1.80;;
20080;SDS011;10200;49.232;9.222;2023-02-04T14:48:43;8.00;;;2.23;;
20080;SDS011;10200;49.232;9.222;2023-02-04T14:51:09;8.60;;;1.90;;
20080;SDS011;10200;49.232;9.222;2023-02-04T14:53:36;4.07;;;1.40;;
20080;SDS011;10200;49.232;9.222;2023-02-04T14:56:02;8.00;;;2.43;;
20080;SDS011;10200;49.232;9.222;2023-02-04T14:58:27;2.87;;;1.30;;
20080;SDS011;10200;49.232;9.222;2023-02-04T15:00:53;5.93;;;1.13;;
20080;SDS011;10200;49.232;9.222;2023-02-04T15:03:19;4.03;;;1.27;;
20080;SDS011;10200;49.232;9.222;2023-02-04T15:05:44;8.03;;;1.70;;
20080;SDS011;10200;49.232;9.222;2023-02-04T15:08:10;4.97;;;1.50;;
20080;SDS011;10200;49.232;9.222;2023-02-04T15:10:35;3.90;;;1.13;;
20080;SDS011;10200;49.232;9.222;2023-02-04T15:13:01;4.33;;;1.20;;